Time;durP1;ratioP1;P1;durP2;ratioP2;P2;SDS_P1;SDS_P2;PMS_P1;PMS_P2;Temp;Humidity;BMP_temperature;BMP_pressure;BME280_temperature;BME280_humidity;BME280_pressure;Samples;Min_cycle;Max_cycle;Signal;HPM_P1;HPM_P2
2022/12/31 00:00:40;;;;;;;6.70;2.60;;;11.80;99.90;;;;;;5021048;28;20069;-66
2022/12/31 00:03:07;;;;;;;6.53;2.65;;;11.80;99.90;;;;;;5019930;28;20058;-66
2022/12/31 00:05:35;;;;;;;6.47;2.70;;;11.80;99.90;;;;;;5019705;28;20059;-66
2022/12/31 00:08:02;;;;;;;18.35;2.88;;;11.80;99.90;;;;;;5015324;28;20052;-66
2022/12/31 00:10:28;;;;;;;9.30;2.85;;;11.80;99.90;;;;;;5026108;28;20037;-66
2022/12/31 00:12:54;;;;;;;8.00;2.72;;;11.80;99.90;;;;;;5028759;28;20060;-66
2022/12/31 00:15:20;;;;;;;10.90;2.60;;;11.70;99.90;;;;;;5026238;28;20395;-66
2022/12/31 00:17:46;;;;;;;11.90;2.92;;;11.70;99.90;;;;;;5014991;28;20122;-66
2022/12/31 00:20:11;;;;;;;4.47;2.13;;;11.70;99.90;;;;;;5028303;28;20098;-66
2022/12/31 00:22:37;;;;;;;10.98;2.30;;;11.70;99.90;;;;;;5009651;28;20056;-66
2022/12/31 00:25:03;;;;;;;5.55;2.22;;;11.70;99.90;;;;;;5011954;28;20042;-67
2022/12/31 00:27:30;;;;;;;6.55;2.30;;;11.70;99.90;;;;;;5025592;28;20467;-66
2022/12/31 00:29:55;;;;;;;6.25;2.85;;;11.70;99.90;;;;;;5028376;28;20100;-66
2022/12/31 00:32:21;;;;;;;7.75;3.15;;;11.70;99.90;;;;;;5026662;28;20097;-67
2022/12/31 00:34:47;;;;;;;10.23;2.50;;;11.70;99.90;;;;;;5042762;28;20060;-66
2022/12/31 00:37:12;;;;;;;9.18;2.45;;;11.80;99.90;;;;;;5019614;28;20058;-66
2022/12/31 00:39:38;;;;;;;9.60;3.28;;;11.80;99.90;;;;;;5026555;28;20482;-66
2022/12/31 00:42:04;;;;;;;6.45;3.00;;;11.80;99.90;;;;;;5008529;28;20118;-66
2022/12/31 00:44:30;;;;;;;8.65;3.17;;;11.70;99.90;;;;;;5024028;28;20049;-66
2022/12/31 00:46:55;;;;;;;9.90;3.17;;;11.70;99.90;;;;;;5018601;28;20050;-67
2022/12/31 00:49:21;;;;;;;9.75;3.75;;;11.70;99.90;;;;;;5011673;28;20046;-66
2022/12/31 00:51:47;;;;;;;11.32;3.95;;;11.70;99.90;;;;;;5008070;28;20056;-67
2022/12/31 00:54:12;;;;;;;6.43;3.85;;;11.90;99.90;;;;;;5008938;28;20046;-67
2022/12/31 00:56:38;;;;;;;9.32;4.57;;;11.60;99.90;;;;;;5009792;28;20050;-67
2022/12/31 00:59:04;;;;;;;9.77;4.03;;;11.70;99.90;;;;;;5008463;28;20034;-67
2022/12/31 01:01:33;;;;;;;9.68;4.32;;;11.70;99.90;;;;;;5007294;28;20062;-67
2022/12/31 01:04:08;;;;;;;11.10;3.85;;;11.70;99.90;;;;;;5018289;28;20110;-65
2022/12/31 01:06:34;;;;;;;8.90;3.70;;;11.70;99.90;;;;;;5027758;28;20102;-65
2022/12/31 01:08:59;;;;;;;9.45;4.45;;;11.70;99.90;;;;;;5020372;28;20038;-65
2022/12/31 01:11:28;;;;;;;7.88;3.53;;;11.60;99.90;;;;;;5024830;28;20037;-65
2022/12/31 01:14:06;;;;;;;23.65;4.10;;;11.70;99.90;;;;;;5027779;28;20053;-65
2022/12/31 01:16:36;;;;;;;10.10;3.65;;;11.70;99.90;;;;;;5026083;28;20775;-66
2022/12/31 01:19:05;;;;;;;12.45;3.90;;;11.70;99.90;;;;;;5018022;28;20390;-66
2022/12/31 01:21:32;;;;;;;11.63;4.40;;;11.60;99.90;;;;;;5023981;28;20509;-66
2022/12/31 01:23:58;;;;;;;10.93;4.05;;;11.60;99.90;;;;;;5028416;28;20087;-64
2022/12/31 01:26:26;;;;;;;7.50;3.65;;;11.60;99.90;;;;;;5008113;28;20103;-63
2022/12/31 01:28:51;;;;;;;8.32;3.30;;;11.60;99.90;;;;;;5024174;28;20359;-63
2022/12/31 01:31:19;;;;;;;7.30;3.25;;;11.60;99.90;;;;;;5009532;28;20098;-65
2022/12/31 01:33:46;;;;;;;7.55;3.30;;;11.60;99.90;;;;;;5020422;28;20044;-63
2022/12/31 01:36:16;;;;;;;6.13;2.60;;;11.60;99.90;;;;;;5027835;28;20144;-63
2022/12/31 01:38:42;;;;;;;10.07;2.70;;;11.50;99.90;;;;;;5004204;28;20525;-63
2022/12/31 01:41:16;;;;;;;;;;;11.50;99.90;;;;;;5020533;28;20454;-64
2022/12/31 01:44:37;;;;;;;9.07;2.88;;;11.50;99.90;;;;;;5027336;28;19924;-64
2022/12/31 01:47:04;;;;;;;6.70;2.63;;;11.50;99.90;;;;;;5006232;28;20060;-64
2022/12/31 01:49:43;;;;;;;7.25;2.78;;;11.50;99.90;;;;;;4996352;28;20042;-64
2022/12/31 01:52:18;;;;;;;5.05;2.40;;;11.50;99.90;;;;;;5007575;28;20044;-64
2022/12/31 01:55:06;;;;;;;4.90;2.30;;;11.50;99.90;;;;;;5019397;28;20046;-63
2022/12/31 01:57:32;;;;;;;7.97;2.65;;;11.50;99.90;;;;;;5019229;28;20094;-63
2022/12/31 01:59:59;;;;;;;;;;;11.40;99.90;;;;;;5024388;28;20561;-64
2022/12/31 02:02:25;;;;;;;3.95;2.17;;;11.40;99.90;;;;;;5006446;28;19917;-66
2022/12/31 02:04:53;;;;;;;;;;;11.40;99.90;;;;;;5024056;28;20059;-64
2022/12/31 02:07:19;;;;;;;3.38;1.88;;;11.40;99.90;;;;;;5027447;28;20372;-64
2022/12/31 02:09:44;;;;;;;5.03;2.05;;;11.40;99.90;;;;;;5012917;28;20134;-64
2022/12/31 02:12:10;;;;;;;3.28;1.83;;;11.30;99.90;;;;;;5023014;28;20132;-65
2022/12/31 02:14:43;;;;;;;6.72;2.05;;;11.30;99.90;;;;;;5015925;28;20049;-64
2022/12/31 02:17:19;;;;;;;2.45;1.48;;;11.30;99.90;;;;;;5025932;28;20417;-64
2022/12/31 02:20:22;;;;;;;3.47;1.45;;;11.30;99.90;;;;;;5007262;28;20042;-64
2022/12/31 02:22:51;;;;;;;6.43;1.50;;;11.30;99.90;;;;;;5026312;28;20129;-64
2022/12/31 02:25:29;;;;;;;5.82;1.42;;;11.30;99.90;;;;;;5023301;28;20048;-64
2022/12/31 02:28:07;;;;;;;2.08;1.30;;;11.30;99.90;;;;;;5015141;28;20077;-64
2022/12/31 02:30:35;;;;;;;2.80;1.30;;;11.30;99.90;;;;;;5007112;28;20050;-64
2022/12/31 02:33:18;;;;;;;1.23;1.13;;;11.20;99.90;;;;;;5010993;28;20088;-63
2022/12/31 02:35:57;;;;;;;0.95;0.88;;;11.20;99.90;;;;;;5007226;28;20092;-63
2022/12/31 02:38:31;;;;;;;4.40;1.05;;;11.20;99.90;;;;;;5007399;28;20038;-64
2022/12/31 02:40:57;;;;;;;3.83;1.25;;;11.10;99.90;;;;;;5013957;28;20045;-63
2022/12/31 02:43:24;;;;;;;3.65;1.10;;;11.10;99.90;;;;;;5026740;28;20041;-64
2022/12/31 02:46:02;;;;;;;3.38;1.10;;;11.10;99.90;;;;;;5022334;28;20049;-63
2022/12/31 02:48:36;;;;;;;1.77;1.50;;;11.10;99.90;;;;;;5025364;28;20356;-66
2022/12/31 02:51:28;;;;;;;3.30;1.20;;;11.00;99.90;;;;;;5027074;28;20045;-64
2022/12/31 02:53:59;;;;;;;1.63;1.17;;;11.00;99.90;;;;;;5020321;28;20042;-64
2022/12/31 02:56:40;;;;;;;4.75;1.67;;;11.00;99.90;;;;;;5007933;28;20045;-64
2022/12/31 03:02:13;;;;;;;9.80;1.88;;;11.00;99.90;;;;;;5006515;28;20486;-65
2022/12/31 03:04:41;;;;;;;3.55;1.55;;;11.00;99.90;;;;;;5015422;28;20061;-65
2022/12/31 03:07:10;;;;;;;2.25;1.20;;;10.90;99.90;;;;;;5026494;28;20046;-65
2022/12/31 03:09:36;;;;;;;1.30;1.10;;;10.90;99.90;;;;;;5015977;28;20044;-64
2022/12/31 03:14:49;;;;;;;2.00;1.40;;;10.90;99.90;;;;;;5007242;28;20053;-65
2022/12/31 03:17:14;;;;;;;3.20;1.70;;;10.90;99.90;;;;;;5006480;28;20058;-64
2022/12/31 03:22:27;;;;;;;3.38;2.20;;;10.90;99.90;;;;;;5023225;28;20124;-65
2022/12/31 03:27:46;;;;;;;4.25;1.55;;;10.90;99.90;;;;;;5005925;28;20088;-64
2022/12/31 03:30:13;;;;;;;;;;;10.90;99.90;;;;;;4990828;28;20046;-64
2022/12/31 03:32:40;;;;;;;2.33;1.48;;;10.90;99.90;;;;;;5005619;28;20650;-64
2022/12/31 03:35:07;;;;;;;3.38;1.73;;;10.80;99.90;;;;;;5018860;28;20049;-63
2022/12/31 03:37:32;;;;;;;4.95;1.70;;;10.80;99.90;;;;;;5026024;28;20457;-65
2022/12/31 03:39:58;;;;;;;2.13;1.38;;;10.80;99.90;;;;;;5013092;28;20128;-63
2022/12/31 03:42:24;;;;;;;5.63;1.55;;;10.80;99.90;;;;;;5025957;28;20652;-63
2022/12/31 03:44:49;;;;;;;5.10;1.60;;;10.80;99.90;;;;;;5023398;28;20065;-63
2022/12/31 03:47:15;;;;;;;3.72;1.60;;;10.90;99.90;;;;;;5019341;28;20555;-63
2022/12/31 03:49:41;;;;;;;3.97;1.65;;;10.90;99.90;;;;;;5008021;28;20053;-64
2022/12/31 03:52:07;;;;;;;2.67;1.92;;;10.90;99.90;;;;;;5025936;28;20562;-63
2022/12/31 03:54:33;;;;;;;4.50;2.10;;;10.90;99.90;;;;;;5013459;28;20054;-65
2022/12/31 03:56:59;;;;;;;6.13;2.33;;;10.90;99.90;;;;;;5008490;28;20471;-63
2022/12/31 03:59:24;;;;;;;5.15;2.13;;;10.90;99.90;;;;;;5022168;28;20542;-63
2022/12/31 04:01:50;;;;;;;5.63;2.20;;;11.00;99.90;;;;;;5008634;28;20120;-63
2022/12/31 04:04:16;;;;;;;5.15;2.28;;;11.00;99.90;;;;;;5024894;28;20058;-63
2022/12/31 04:06:41;;;;;;;5.55;2.50;;;11.00;99.90;;;;;;5025687;28;20140;-63
2022/12/31 04:09:07;;;;;;;5.28;2.17;;;11.00;99.90;;;;;;5025340;28;20046;-63
2022/12/31 04:11:33;;;;;;;5.65;2.42;;;11.00;99.90;;;;;;5009865;28;20038;-63
2022/12/31 04:13:58;;;;;;;5.35;2.92;;;11.00;99.90;;;;;;5009036;28;20541;-63
2022/12/31 04:16:24;;;;;;;5.40;1.65;;;11.00;99.90;;;;;;5020839;28;20052;-63
2022/12/31 04:18:50;;;;;;;5.97;1.70;;;11.00;99.90;;;;;;5014548;28;20038;-63
2022/12/31 04:21:15;;;;;;;3.97;2.05;;;11.00;99.90;;;;;;5009023;28;20042;-64
2022/12/31 04:23:41;;;;;;;2.42;1.40;;;11.00;99.90;;;;;;5014806;28;20166;-63
2022/12/31 04:26:07;;;;;;;3.15;1.63;;;11.00;99.90;;;;;;5026681;28;20045;-64
2022/12/31 04:28:32;;;;;;;2.13;1.50;;;11.00;99.90;;;;;;5028707;28;20045;-63
2022/12/31 04:30:58;;;;;;;2.58;1.52;;;11.00;99.90;;;;;;5025578;28;20050;-63
2022/12/31 04:33:24;;;;;;;4.22;1.48;;;11.00;99.90;;;;;;5017611;28;20042;-63
2022/12/31 04:35:49;;;;;;;5.38;1.45;;;11.00;99.90;;;;;;5013438;28;20468;-63
2022/12/31 04:38:15;;;;;;;8.52;1.90;;;11.00;99.90;;;;;;5027239;28;20182;-64
2022/12/31 04:41:15;;;;;;;6.78;1.60;;;10.90;99.90;;;;;;5013358;28;20497;-64
2022/12/31 04:43:26;;;;;;;2.42;1.58;;;10.90;99.90;;;;;;5011243;28;20134;-64
2022/12/31 04:45:52;;;;;;;5.03;1.55;;;10.90;99.90;;;;;;5028135;28;20104;-64
2022/12/31 04:48:18;;;;;;;1.73;1.20;;;10.90;99.90;;;;;;5026439;28;20458;-64
2022/12/31 04:50:45;;;;;;;3.53;1.50;;;10.90;99.90;;;;;;5028465;28;20545;-64
2022/12/31 04:53:11;;;;;;;3.25;1.70;;;10.80;99.90;;;;;;5026979;28;20041;-64
2022/12/31 04:55:36;;;;;;;2.83;1.33;;;10.80;99.90;;;;;;5017706;28;20117;-64
2022/12/31 04:58:03;;;;;;;1.48;1.10;;;10.80;99.90;;;;;;5027665;28;20056;-65
2022/12/31 05:00:29;;;;;;;2.47;1.10;;;10.80;99.90;;;;;;5025654;28;20056;-65
2022/12/31 05:02:55;;;;;;;2.78;1.20;;;10.80;99.90;;;;;;5036196;28;20042;-64
2022/12/31 05:05:20;;;;;;;5.32;1.27;;;10.70;99.90;;;;;;5009098;28;20054;-64
2022/12/31 05:07:46;;;;;;;1.35;1.08;;;10.70;99.90;;;;;;5007137;28;20098;-64
2022/12/31 05:10:12;;;;;;;4.07;1.48;;;10.70;99.90;;;;;;5015498;28;20057;-64
2022/12/31 05:12:37;;;;;;;1.77;1.10;;;10.70;99.90;;;;;;5027720;28;20535;-64
2022/12/31 05:15:03;;;;;;;3.08;1.50;;;10.70;99.90;;;;;;5027354;28;20034;-64
2022/12/31 05:17:29;;;;;;;;;;;10.70;99.90;;;;;;5023491;28;20042;-64
2022/12/31 05:19:54;;;;;;;2.55;1.50;;;10.70;99.90;;;;;;5008310;28;19990;-64
2022/12/31 05:22:29;;;;;;;3.80;1.80;;;10.60;99.90;;;;;;5023607;28;20126;-64
2022/12/31 05:24:59;;;;;;;5.72;2.38;;;10.60;99.90;;;;;;4991328;28;20046;-64
2022/12/31 05:27:26;;;;;;;8.30;2.70;;;10.60;99.90;;;;;;5008830;28;21939;-66
2022/12/31 05:29:52;;;;;;;8.30;3.10;;;10.60;99.90;;;;;;5027758;28;20083;-64
2022/12/31 05:32:17;;;;;;;8.00;3.17;;;10.70;99.90;;;;;;5025610;28;20041;-65
2022/12/31 05:34:43;;;;;;;8.80;3.42;;;10.70;99.90;;;;;;5008253;28;20081;-66
2022/12/31 05:37:09;;;;;;;6.70;3.38;;;10.30;99.90;;;;;;5024702;28;20041;-67
2022/12/31 05:39:34;;;;;;;8.10;3.60;;;10.70;99.90;;;;;;5018170;28;20077;-64
2022/12/31 05:42:00;;;;;;;7.45;3.25;;;10.70;99.90;;;;;;5026675;28;20053;-64
2022/12/31 05:44:26;;;;;;;7.13;3.45;;;10.80;99.90;;;;;;5024914;28;20121;-64
2022/12/31 05:46:51;;;;;;;7.70;3.40;;;10.80;99.90;;;;;;5026140;28;20042;-64
2022/12/31 05:49:17;;;;;;;7.72;3.55;;;10.80;99.90;;;;;;5008069;28;20042;-64
2022/12/31 05:51:43;;;;;;;6.93;3.40;;;10.80;99.90;;;;;;5008031;28;20053;-64
2022/12/31 05:54:08;;;;;;;6.43;2.85;;;10.80;99.90;;;;;;4991247;28;20034;-64
2022/12/31 05:56:34;;;;;;;8.02;3.55;;;10.80;99.90;;;;;;5022195;28;20052;-64
2022/12/31 05:59:00;;;;;;;6.43;2.65;;;10.80;99.90;;;;;;5007690;28;20042;-64
2022/12/31 06:01:25;;;;;;;6.55;2.83;;;10.90;99.90;;;;;;5014989;28;20041;-64
2022/12/31 06:03:51;;;;;;;6.65;2.88;;;10.90;99.90;;;;;;5027182;28;20107;-64
2022/12/31 06:06:17;;;;;;;6.00;2.55;;;10.90;99.90;;;;;;5024687;28;20676;-64
2022/12/31 06:08:42;;;;;;;5.20;2.70;;;10.90;99.90;;;;;;5027908;28;20177;-64
2022/12/31 06:11:08;;;;;;;6.35;2.70;;;10.90;99.90;;;;;;5024162;28;20037;-64
2022/12/31 06:13:34;;;;;;;6.07;2.35;;;11.00;99.90;;;;;;5026924;28;20080;-65
2022/12/31 06:16:08;;;;;;;5.22;2.20;;;11.00;99.90;;;;;;5023745;28;20041;-66
2022/12/31 06:18:34;;;;;;;4.30;2.10;;;11.00;99.90;;;;;;5007264;28;20088;-65
2022/12/31 06:21:00;;;;;;;4.00;2.22;;;11.00;99.90;;;;;;5007189;28;20083;-65
2022/12/31 06:23:25;;;;;;;4.13;2.00;;;11.00;99.90;;;;;;5007691;28;20049;-65
2022/12/31 06:25:51;;;;;;;5.00;2.50;;;11.00;99.90;;;;;;5019988;28;20498;-65
2022/12/31 06:28:17;;;;;;;4.53;2.40;;;10.90;99.90;;;;;;5009154;28;20063;-65
2022/12/31 06:30:43;;;;;;;5.60;2.15;;;10.90;99.90;;;;;;5024278;28;20050;-64
2022/12/31 06:33:08;;;;;;;3.90;2.05;;;10.90;99.90;;;;;;5022244;28;20463;-65
2022/12/31 06:35:34;;;;;;;4.90;2.53;;;10.90;99.90;;;;;;5007595;28;20045;-65
2022/12/31 06:38:00;;;;;;;5.10;2.33;;;10.90;99.90;;;;;;5006536;28;20379;-64
2022/12/31 06:40:25;;;;;;;6.28;2.08;;;10.90;99.90;;;;;;5019745;28;20046;-65
2022/12/31 06:42:52;;;;;;;7.32;2.35;;;10.80;99.90;;;;;;5007327;28;20060;-65
2022/12/31 06:45:18;;;;;;;3.90;2.00;;;10.80;99.90;;;;;;5018380;28;20512;-65
2022/12/31 06:47:44;;;;;;;5.47;2.40;;;10.80;99.90;;;;;;5023720;28;20146;-64
2022/12/31 06:50:10;;;;;;;7.32;2.10;;;10.80;99.90;;;;;;5008822;28;20117;-65
2022/12/31 06:52:36;;;;;;;;;;;10.80;99.90;;;;;;5019160;28;20038;-65
2022/12/31 06:55:03;;;;;;;4.85;2.20;;;10.80;99.90;;;;;;5024217;28;19921;-65
2022/12/31 06:57:29;;;;;;;3.80;1.83;;;10.80;99.90;;;;;;5034623;28;20037;-65
2022/12/31 06:59:55;;;;;;;5.40;2.15;;;10.80;99.90;;;;;;5006709;28;20049;-64
2022/12/31 07:02:35;;;;;;;4.00;2.03;;;10.80;99.90;;;;;;5006214;28;20049;-64
2022/12/31 07:05:10;;;;;;;3.95;1.98;;;10.80;99.90;;;;;;5006889;28;20390;-64
2022/12/31 07:08:07;;;;;;;7.70;2.05;;;10.70;99.90;;;;;;5006714;28;20502;-64
2022/12/31 07:10:40;;;;;;;3.90;1.77;;;10.80;99.90;;;;;;5022708;28;20060;-65
2022/12/31 07:13:53;;;;;;;4.82;2.15;;;10.70;99.90;;;;;;5025948;28;20048;-65
2022/12/31 07:16:37;;;;;;;5.50;1.73;;;10.80;99.90;;;;;;5041355;28;20562;-64
2022/12/31 07:19:15;;;;;;;4.00;1.85;;;10.80;99.90;;;;;;4993008;28;20555;-64
2022/12/31 07:21:42;;;;;;;2.92;1.60;;;10.80;99.90;;;;;;5006975;28;20042;-64
2022/12/31 07:24:09;;;;;;;3.78;1.77;;;10.80;99.90;;;;;;5007871;28;20049;-65
2022/12/31 07:26:54;;;;;;;2.92;1.70;;;10.80;99.90;;;;;;5024490;28;20037;-64
2022/12/31 07:29:31;;;;;;;4.80;1.98;;;10.90;99.90;;;;;;5006813;28;20038;-64
2022/12/31 07:32:18;;;;;;;5.35;2.38;;;10.90;99.90;;;;;;5008174;28;20053;-65
2022/12/31 07:34:53;;;;;;;6.45;2.15;;;10.90;99.90;;;;;;5010397;28;20132;-65
2022/12/31 07:37:27;;;;;;;5.40;2.40;;;11.00;99.90;;;;;;5009515;28;20085;-65
2022/12/31 07:39:59;;;;;;;5.10;2.20;;;11.00;99.90;;;;;;5010239;28;20494;-65
2022/12/31 07:42:54;;;;;;;6.18;2.17;;;11.00;99.90;;;;;;5009779;28;20065;-65
2022/12/31 07:45:26;;;;;;;5.72;2.25;;;11.00;99.90;;;;;;5027973;28;20056;-65
2022/12/31 07:47:51;;;;;;;7.85;2.70;;;11.00;99.90;;;;;;5029103;28;20080;-65
2022/12/31 07:50:18;;;;;;;6.05;2.47;;;11.00;99.90;;;;;;5029600;28;20088;-65
2022/12/31 07:52:44;;;;;;;4.78;2.40;;;11.00;99.90;;;;;;5030821;28;20090;-65
2022/12/31 07:55:10;;;;;;;4.97;2.00;;;11.10;99.90;;;;;;5029225;28;20375;-65
2022/12/31 07:58:00;;;;;;;6.28;2.42;;;11.10;99.90;;;;;;5012400;28;20102;-66
2022/12/31 08:00:28;;;;;;;5.80;2.33;;;11.10;99.90;;;;;;5025917;28;20054;-65
2022/12/31 08:03:34;;;;;;;4.60;2.00;;;11.10;99.90;;;;;;5008756;28;20045;-67
2022/12/31 08:06:11;;;;;;;4.57;2.10;;;11.10;99.90;;;;;;5009042;28;20046;-66
2022/12/31 08:08:55;;;;;;;5.22;2.53;;;11.10;99.90;;;;;;5016962;28;20076;-65
2022/12/31 08:11:40;;;;;;;4.20;1.83;;;11.20;99.90;;;;;;5029324;28;20057;-65
2022/12/31 08:14:12;;;;;;;5.45;2.20;;;11.20;99.90;;;;;;5029015;28;20038;-65
2022/12/31 08:16:39;;;;;;;5.18;2.17;;;11.30;99.90;;;;;;5028761;28;20041;-65
2022/12/31 08:19:05;;;;;;;3.50;1.92;;;11.30;99.90;;;;;;5029072;28;20108;-66
2022/12/31 08:22:05;;;;;;;4.53;2.22;;;11.30;99.90;;;;;;5029097;28;20048;-65
2022/12/31 08:24:42;;;;;;;4.57;2.08;;;11.40;99.90;;;;;;5045187;28;20473;-65
2022/12/31 08:27:29;;;;;;;4.28;1.85;;;11.40;99.90;;;;;;5021264;28;20054;-65
2022/12/31 08:30:06;;;;;;;3.25;1.80;;;11.50;99.90;;;;;;5029344;28;20038;-65
2022/12/31 08:33:06;;;;;;;4.00;2.00;;;11.60;99.90;;;;;;5028273;28;20053;-65
2022/12/31 08:35:40;;;;;;;7.15;2.00;;;11.60;99.90;;;;;;5029268;28;20041;-65
2022/12/31 08:38:24;;;;;;;4.22;2.08;;;11.70;99.90;;;;;;5028227;28;20103;-65
2022/12/31 08:41:01;;;;;;;6.03;2.20;;;11.70;99.90;;;;;;5029241;28;20079;-66
2022/12/31 08:43:51;;;;;;;5.22;2.28;;;11.80;99.90;;;;;;5028445;28;20076;-66
2022/12/31 08:46:32;;;;;;;4.10;2.20;;;11.80;99.90;;;;;;5019054;28;20120;-66
2022/12/31 08:48:58;;;;;;;5.47;2.17;;;11.90;99.90;;;;;;5027731;28;20094;-66
2022/12/31 08:51:24;;;;;;;;;;;11.90;99.90;;;;;;5028635;28;20093;-66
2022/12/31 08:53:51;;;;;;;3.85;2.08;;;12.00;99.90;;;;;;5028845;28;19917;-67
2022/12/31 08:56:26;;;;;;;4.70;2.33;;;12.00;99.90;;;;;;5010704;28;20073;-67
2022/12/31 08:59:16;;;;;;;5.07;1.83;;;12.00;99.90;;;;;;5123746;27;20043;-67
2022/12/31 09:02:06;;;;;;;5.13;2.20;;;12.10;99.90;;;;;;5131935;27;20053;-66
2022/12/31 09:05:09;;;;;;;5.90;2.30;;;12.10;99.90;;;;;;5132901;27;20506;-67
2022/12/31 09:07:38;;;;;;;4.15;2.05;;;12.20;99.90;;;;;;5056579;28;20049;-66
2022/12/31 09:10:25;;;;;;;3.00;1.65;;;12.20;99.90;;;;;;5023628;28;20037;-67
2022/12/31 09:12:54;;;;;;;;;;;12.30;99.90;;;;;;5028238;28;20049;-67
2022/12/31 09:15:32;;;;;;;3.15;1.73;;;12.30;99.90;;;;;;5027696;28;20308;-67
2022/12/31 09:17:58;;;;;;;3.05;1.60;;;12.30;99.90;;;;;;5027460;28;20077;-70
2022/12/31 09:20:29;;;;;;;;;;;12.40;99.90;;;;;;5028445;28;20049;-68
2022/12/31 09:22:55;;;;;;;39.85;2.00;;;12.40;99.90;;;;;;5027856;28;19921;-66
2022/12/31 09:25:23;;;;;;;2.15;1.42;;;12.40;99.90;;;;;;5018350;28;20041;-66
2022/12/31 09:27:49;;;;;;;5.88;1.10;;;12.40;99.90;;;;;;5027737;28;20410;-66
2022/12/31 09:30:16;;;;;;;3.35;1.30;;;12.40;99.90;;;;;;5008732;28;20054;-67
2022/12/31 09:32:51;;;;;;;2.65;1.13;;;12.50;99.90;;;;;;5007983;28;20050;-66
2022/12/31 09:35:49;;;;;;;2.28;1.10;;;12.50;99.90;;;;;;4997178;28;20045;-65
2022/12/31 09:38:41;;;;;;;1.48;1.00;;;12.50;99.90;;;;;;5028835;28;20049;-67
2022/12/31 09:41:14;;;;;;;1.50;0.93;;;12.50;99.90;;;;;;5025969;28;20044;-68
2022/12/31 09:44:17;;;;;;;2.63;1.13;;;12.50;99.90;;;;;;5026115;28;20041;-66
2022/12/31 09:47:05;;;;;;;1.85;1.17;;;12.50;99.90;;;;;;5024179;28;20054;-66
2022/12/31 09:49:52;;;;;;;2.33;0.93;;;12.60;99.90;;;;;;5025464;28;20134;-65
2022/12/31 09:52:42;;;;;;;1.00;0.80;;;12.60;99.90;;;;;;5026875;28;20045;-65
2022/12/31 09:55:43;;;;;;;1.23;0.80;;;12.60;99.90;;;;;;5024123;28;20215;-68
2022/12/31 09:58:33;;;;;;;3.42;0.90;;;12.70;99.90;;;;;;5027594;28;20034;-68
2022/12/31 10:01:28;;;;;;;0.65;0.63;;;12.70;99.90;;;;;;5030960;28;20056;-65
2022/12/31 10:04:29;;;;;;;0.70;0.60;;;12.70;99.90;;;;;;5028437;28;20036;-65
2022/12/31 10:07:42;;;;;;;2.50;0.90;;;12.80;99.90;;;;;;5036574;27;20086;-65
2022/12/31 10:10:39;;;;;;;0.68;0.60;;;12.80;99.90;;;;;;5035102;28;20126;-68
2022/12/31 10:13:21;;;;;;;1.40;0.90;;;12.80;99.90;;;;;;5033663;28;20140;-65
2022/12/31 10:15:53;;;;;;;0.70;0.60;;;12.90;99.90;;;;;;5023181;28;20417;-65
2022/12/31 10:18:56;;;;;;;0.60;0.57;;;12.90;99.90;;;;;;5025334;28;20037;-65
2022/12/31 10:21:41;;;;;;;0.90;0.73;;;13.00;99.90;;;;;;5024271;28;20497;-65
2022/12/31 10:24:37;;;;;;;1.55;0.70;;;13.10;99.90;;;;;;5026032;28;20073;-65
2022/12/31 10:27:24;;;;;;;1.70;0.80;;;13.10;99.90;;;;;;5024139;28;20051;-65
2022/12/31 10:30:02;;;;;;;0.80;0.70;;;13.20;99.90;;;;;;5024937;28;20044;-65
2022/12/31 10:32:40;;;;;;;0.70;0.70;;;13.20;99.90;;;;;;5023346;28;20116;-65
2022/12/31 10:35:35;;;;;;;1.23;0.60;;;13.20;99.90;;;;;;5024025;28;20117;-66
2022/12/31 10:38:09;;;;;;;5.03;0.95;;;13.20;99.90;;;;;;5025559;28;20050;-66
2022/12/31 10:40:56;;;;;;;1.35;0.90;;;13.20;99.90;;;;;;5018378;28;20128;-67
2022/12/31 10:43:40;;;;;;;2.25;0.77;;;13.20;99.90;;;;;;5023151;28;20046;-65
2022/12/31 10:46:18;;;;;;;0.80;0.80;;;13.20;99.90;;;;;;5023173;28;20127;-66
2022/12/31 10:49:00;;;;;;;1.38;1.02;;;13.20;99.90;;;;;;5022151;28;20106;-67
2022/12/31 10:51:25;;;;;;;1.05;0.73;;;13.20;99.90;;;;;;5014655;28;20042;-66
2022/12/31 10:54:00;;;;;;;3.10;1.00;;;13.20;99.90;;;;;;5017572;28;20505;-67
2022/12/31 10:56:40;;;;;;;1.80;1.15;;;13.30;99.90;;;;;;5002755;28;20050;-66
2022/12/31 10:59:21;;;;;;;2.28;1.10;;;13.30;99.90;;;;;;5015445;28;20045;-67
2022/12/31 11:02:25;;;;;;;1.45;1.10;;;13.30;99.90;;;;;;5010301;28;20452;-67
2022/12/31 11:05:28;;;;;;;2.85;1.38;;;13.40;99.90;;;;;;5013096;28;20505;-69
2022/12/31 11:08:16;;;;;;;5.90;2.15;;;13.40;99.90;;;;;;5026351;28;20087;-67
2022/12/31 11:11:01;;;;;;;5.72;1.38;;;13.40;99.90;;;;;;5001995;28;20129;-67
2022/12/31 11:13:47;;;;;;;1.50;1.02;;;13.30;99.90;;;;;;5019361;28;20041;-69
2022/12/31 11:16:35;;;;;;;1.65;1.23;;;13.40;99.90;;;;;;5023542;28;20034;-67
2022/12/31 11:19:06;;;;;;;2.60;1.30;;;13.30;99.90;;;;;;5015279;28;20077;-68
2022/12/31 11:21:43;;;;;;;4.45;1.48;;;13.30;99.90;;;;;;5012075;28;20038;-68
2022/12/31 11:24:17;;;;;;;3.28;1.30;;;13.20;99.90;;;;;;4995082;28;20340;-69
2022/12/31 11:26:53;;;;;;;4.90;2.00;;;13.20;99.90;;;;;;5012324;28;20122;-69
2022/12/31 11:29:47;;;;;;;3.00;1.67;;;13.10;99.90;;;;;;5014116;28;20123;-70
2022/12/31 11:32:29;;;;;;;5.90;2.25;;;13.10;99.90;;;;;;5020523;28;20106;-67
2022/12/31 11:35:47;;;;;;;4.32;1.50;;;13.10;99.90;;;;;;5013599;28;20048;-67
2022/12/31 11:38:24;;;;;;;6.10;2.30;;;13.10;99.90;;;;;;5001989;28;20080;-67
2022/12/31 11:40:55;;;;;;;5.00;2.10;;;13.10;99.90;;;;;;5013367;28;20069;-68
2022/12/31 11:43:33;;;;;;;5.47;2.40;;;13.20;99.90;;;;;;5012150;28;20044;-68
2022/12/31 11:46:24;;;;;;;3.50;1.88;;;13.20;99.90;;;;;;5012931;28;20053;-68
2022/12/31 11:49:05;;;;;;;2.97;1.40;;;13.20;99.90;;;;;;5020584;28;20551;-68
2022/12/31 11:52:16;;;;;;;3.58;2.05;;;13.20;99.90;;;;;;5023900;28;20465;-67
2022/12/31 11:55:17;;;;;;;8.15;2.20;;;13.30;99.90;;;;;;5024666;28;20433;-68
2022/12/31 11:57:49;;;;;;;4.03;2.67;;;13.30;99.90;;;;;;5025135;28;20050;-68
2022/12/31 12:00:24;;;;;;;5.95;2.58;;;13.20;99.90;;;;;;5050737;28;20131;-68
2022/12/31 12:02:51;;;;;;;3.53;2.03;;;13.30;99.90;;;;;;5011079;28;20053;-67
2022/12/31 12:05:20;;;;;;;5.38;2.30;;;13.30;99.90;;;;;;5009629;28;20053;-67
2022/12/31 12:07:47;;;;;;;5.97;2.50;;;13.30;99.90;;;;;;5012783;28;20106;-69
2022/12/31 12:10:22;;;;;;;3.75;2.05;;;13.40;99.90;;;;;;5011652;28;20048;-67
2022/12/31 12:12:49;;;;;;;5.85;2.65;;;13.40;99.90;;;;;;5018270;28;20056;-67
2022/12/31 12:15:23;;;;;;;7.32;2.63;;;13.40;99.90;;;;;;5024325;28;20090;-67
2022/12/31 12:17:52;;;;;;;7.72;2.30;;;13.50;99.90;;;;;;5026418;28;20049;-67
2022/12/31 12:20:28;;;;;;;7.90;2.22;;;13.50;99.90;;;;;;5031421;27;20049;-68
2022/12/31 12:22:57;;;;;;;4.80;2.90;;;13.50;99.90;;;;;;5027538;28;20488;-68
2022/12/31 12:25:26;;;;;;;6.63;2.60;;;13.50;99.90;;;;;;5026422;28;20053;-72
2022/12/31 12:27:53;;;;;;;6.22;2.75;;;13.50;99.90;;;;;;5029100;28;20148;-68
2022/12/31 12:30:27;;;;;;;10.20;2.55;;;13.50;99.90;;;;;;5015202;28;20039;-69
2022/12/31 12:33:00;;;;;;;4.53;2.03;;;13.50;99.90;;;;;;5016935;28;20493;-67
2022/12/31 12:35:29;;;;;;;2.25;1.67;;;13.50;99.90;;;;;;5020992;28;20383;-68
2022/12/31 12:38:11;;;;;;;2.65;1.70;;;13.50;99.90;;;;;;5008917;28;20077;-68
2022/12/31 12:40:38;;;;;;;4.03;1.50;;;13.50;99.90;;;;;;5008924;28;20038;-68
2022/12/31 12:43:03;;;;;;;6.53;2.55;;;13.50;99.90;;;;;;5012514;28;20042;-69
2022/12/31 12:45:45;;;;;;;5.00;2.10;;;13.50;99.90;;;;;;5028896;28;20440;-67
2022/12/31 12:48:33;;;;;;;4.32;1.83;;;13.40;99.90;;;;;;5023130;28;20053;-68
2022/12/31 12:50:59;;;;;;;5.65;2.58;;;13.40;99.90;;;;;;5016532;28;20367;-69
2022/12/31 12:53:43;;;;;;;6.38;2.17;;;13.30;99.90;;;;;;5025174;28;20045;-72
2022/12/31 12:56:11;;;;;;;8.90;2.53;;;13.30;99.90;;;;;;4992081;28;20053;-72
2022/12/31 12:58:46;;;;;;;10.18;3.35;;;13.30;99.90;;;;;;5025213;28;20421;-69
2022/12/31 13:01:22;;;;;;;13.05;2.67;;;13.30;99.90;;;;;;5027176;28;20052;-69
2022/12/31 13:04:03;;;;;;;13.63;3.20;;;13.30;99.90;;;;;;5026054;28;20057;-69
2022/12/31 13:07:03;;;;;;;4.32;2.40;;;13.30;99.90;;;;;;5025986;28;20049;-73
2022/12/31 13:09:56;;;;;;;8.10;2.65;;;13.30;99.90;;;;;;5022027;28;20041;-75
2022/12/31 13:12:39;;;;;;;6.50;2.05;;;13.30;99.90;;;;;;5021326;28;20436;-71
2022/12/31 13:15:17;;;;;;;8.25;2.58;;;13.30;99.90;;;;;;5013558;28;20040;-75
2022/12/31 13:17:53;;;;;;;10.95;2.50;;;13.20;99.90;;;;;;5008704;28;20470;-79
2022/12/31 13:20:18;;;;;;;16.58;3.10;;;13.20;99.90;;;;;;5027141;28;20144;-76
2022/12/31 13:23:01;;;;;;;4.65;1.83;;;13.10;99.90;;;;;;5025626;28;20114;-77
2022/12/31 13:25:41;;;;;;;2.45;1.40;;;13.10;99.90;;;;;;5021207;28;20103;-74
2022/12/31 13:28:13;;;;;;;5.03;2.35;;;13.10;99.90;;;;;;5009190;28;20057;-73
2022/12/31 13:30:48;;;;;;;11.77;2.10;;;13.10;99.90;;;;;;5008890;28;20042;-75
2022/12/31 13:33:15;;;;;;;8.52;2.50;;;13.00;99.90;;;;;;5015798;28;20037;-75